Time;durP1;ratioP1;P1;durP2;ratioP2;P2;SDS_P1;SDS_P2;PMS_P1;PMS_P2;Temp;Humidity;BMP_temperature;BMP_pressure;BME280_temperature;BME280_humidity;BME280_pressure;Samples;Min_cycle;Max_cycle;Signal;HPM_P1;HPM_P2
2023/10/25 00:01:59;;;;;;;16.07;12.30;;;;;;;13.79;100.00;97110.03;4205726;28;21117;-81
2023/10/25 00:04:02;;;;;;;14.27;11.97;;;;;;;13.78;100.00;97114.44;4194155;28;20662;-80
2023/10/25 00:06:05;;;;;;;13.73;12.30;;;;;;;13.77;100.00;97123.28;4173567;28;20621;-81
2023/10/25 00:08:08;;;;;;;11.90;10.80;;;;;;;13.77;100.00;97119.81;4177910;28;20622;-80
2023/10/25 00:10:11;;;;;;;11.87;10.67;;;;;;;13.74;100.00;97118.34;4178135;28;20632;-81
2023/10/25 00:12:16;;;;;;;13.63;11.80;;;;;;;13.72;100.00;97116.84;4160521;28;20708;-81
2023/10/25 00:14:19;;;;;;;13.23;11.93;;;;;;;13.70;100.00;97111.75;4193278;28;20725;-81
2023/10/25 00:16:22;;;;;;;12.13;10.93;;;;;;;13.68;100.00;97116.31;4150811;28;20647;-81
2023/10/25 00:18:24;;;;;;;13.00;11.70;;;;;;;13.67;100.00;97111.22;4163124;28;20626;-80
2023/10/25 00:20:28;;;;;;;11.73;10.53;;;;;;;13.64;100.00;97110.69;4161586;28;20647;-80
2023/10/25 00:22:31;;;;;;;12.13;10.93;;;;;;;13.61;100.00;97105.75;4157844;28;20634;-81
2023/10/25 00:24:34;;;;;;;12.60;11.30;;;;;;;13.57;100.00;97107.81;4191647;28;20640;-81
2023/10/25 00:26:37;;;;;;;12.53;10.60;;;;;;;13.55;100.00;97103.72;4154988;28;20629;-80
2023/10/25 00:28:42;;;;;;;11.97;10.20;;;;;;;13.52;100.00;97102.22;4176353;28;20633;-80
2023/10/25 00:30:45;;;;;;;11.40;10.10;;;;;;;13.49;100.00;97101.69;4173088;28;20681;-80
2023/10/25 00:32:49;;;;;;;12.50;11.30;;;;;;;13.47;100.00;97096.59;4163666;28;20991;-80
2023/10/25 00:34:52;;;;;;;13.00;11.07;;;;;;;13.46;100.00;97099.34;4159014;28;20629;-81
2023/10/25 00:36:55;;;;;;;12.90;11.60;;;;;;;13.44;100.00;97102.13;4166694;28;21024;-81
2023/10/25 00:38:58;;;;;;;12.40;11.20;;;;;;;13.43;100.00;97110.13;4154145;28;20637;-80
2023/10/25 00:41:01;;;;;;;14.53;11.50;;;;;;;13.37;100.00;97098.44;4195584;28;20633;-81
2023/10/25 00:43:16;;;;;;;13.10;11.80;;;;;;;13.39;100.00;97098.28;4162770;28;20747;-81
2023/10/25 00:45:20;;;;;;;12.40;11.20;;;;;;;13.40;100.00;97097.31;4166248;28;20672;-80
2023/10/25 00:47:24;;;;;;;15.20;11.80;;;;;;;13.35;100.00;97096.91;4178675;28;20716;-80
2023/10/25 00:49:28;;;;;;;12.30;11.00;;;;;;;13.30;100.00;97094.72;4163800;28;20625;-81
2023/10/25 00:51:31;;;;;;;12.10;10.90;;;;;;;13.27;100.00;97102.88;4163878;28;20684;-80
2023/10/25 00:53:39;;;;;;;12.07;10.77;;;;;;;13.27;100.00;97099.44;4176366;28;20648;-80
2023/10/25 00:55:42;;;;;;;11.80;10.60;;;;;;;13.28;100.00;97103.72;4193085;28;21209;-81
2023/10/25 00:57:45;;;;;;;11.40;10.30;;;;;;;13.27;100.00;97105.50;4171589;28;20648;-81
2023/10/25 00:59:48;;;;;;;10.60;9.60;;;;;;;13.28;100.00;97107.16;4179017;28;20633;-80
2023/10/25 01:01:53;;;;;;;10.63;9.13;;;;;;;13.27;100.00;97104.69;4175049;28;20712;-80
2023/10/25 01:03:56;;;;;;;12.13;10.10;;;;;;;13.26;100.00;97103.03;4178612;28;20714;-80
2023/10/25 01:06:02;;;;;;;9.93;8.93;;;;;;;13.28;100.00;97095.88;4178666;28;20994;-80
2023/10/25 01:08:07;;;;;;;10.63;9.53;;;;;;;13.27;100.00;97091.59;4163358;28;21171;-80
2023/10/25 01:10:10;;;;;;;12.40;9.20;;;;;;;13.23;100.00;97092.88;4151870;28;20673;-80
2023/10/25 01:12:14;;;;;;;12.53;11.07;;;;;;;13.21;100.00;97092.16;4174024;28;20668;-80
2023/10/25 01:14:16;;;;;;;11.23;9.60;;;;;;;13.18;100.00;97084.59;4173057;28;20674;-80
2023/10/25 01:16:20;;;;;;;12.07;10.10;;;;;;;13.16;100.00;97086.56;4175048;28;21286;-81
2023/10/25 01:18:25;;;;;;;11.20;9.40;;;;;;;13.17;100.00;97088.22;4172696;28;20757;-80
2023/10/25 01:20:28;;;;;;;10.50;9.00;;;;;;;13.19;100.00;97084.47;4204010;28;21026;-80
2023/10/25 01:22:32;;;;;;;10.27;9.27;;;;;;;13.19;100.00;97081.84;4167349;28;21045;-81
2023/10/25 01:24:36;;;;;;;12.23;9.27;;;;;;;13.17;100.00;97069.88;4155208;28;20760;-81
2023/10/25 01:26:39;;;;;;;11.00;9.90;;;;;;;13.13;100.00;97067.69;4161154;28;20720;-81
2023/10/25 01:28:42;;;;;;;10.60;9.50;;;;;;;13.13;100.00;97071.13;4189283;28;20734;-81
2023/10/25 01:30:46;;;;;;;13.10;10.90;;;;;;;13.13;100.00;97071.13;4205553;28;21056;-80
2023/10/25 01:32:50;;;;;;;12.67;10.67;;;;;;;13.13;100.00;97079.00;4175787;28;20679;-80
2023/10/25 01:34:53;;;;;;;11.50;9.90;;;;;;;13.08;100.00;97077.75;4174137;28;20663;-80
2023/10/25 01:36:56;;;;;;;12.27;9.60;;;;;;;13.06;100.00;97071.84;4175203;28;21064;-81
2023/10/25 01:39:01;;;;;;;12.40;8.90;;;;;;;13.03;100.00;97070.34;4169492;28;20637;-81
2023/10/25 01:41:05;;;;;;;16.90;9.97;;;;;;;13.00;100.00;97054.91;4160966;28;20748;-81
2023/10/25 01:43:08;;;;;;;12.60;8.97;;;;;;;12.95;100.00;97057.16;4177498;28;21088;-81
2023/10/25 01:45:12;;;;;;;14.80;9.03;;;;;;;12.91;100.00;97050.56;4193433;28;20955;-81
2023/10/25 01:47:15;;;;;;;13.77;8.50;;;;;;;12.90;100.00;97056.78;4202161;28;20689;-80
2023/10/25 01:49:18;;;;;;;9.37;7.90;;;;;;;12.88;100.00;97063.94;4172705;28;21278;-81
2023/10/25 01:51:21;;;;;;;16.00;8.80;;;;;;;12.83;100.00;97062.72;4172459;28;20661;-81
2023/10/25 01:53:23;;;;;;;10.93;8.10;;;;;;;12.79;100.00;97064.78;4178207;28;20629;-80
2023/10/25 01:55:28;;;;;;;9.90;7.90;;;;;;;12.75;100.00;97073.06;4159906;28;20690;-80
2023/10/25 01:57:30;;;;;;;10.43;8.90;;;;;;;12.70;100.00;97072.63;4176776;28;20776;-81
2023/10/25 01:59:33;;;;;;;8.80;7.87;;;;;;;12.67;100.00;97065.06;4189566;28;20616;-81
2023/10/25 02:01:36;;;;;;;10.47;8.80;;;;;;;12.65;100.00;97074.06;4168626;28;20692;-81
2023/10/25 02:03:39;;;;;;;14.23;8.97;;;;;;;12.61;100.00;97073.50;4179937;28;21208;-80
2023/10/25 02:05:43;;;;;;;10.57;8.80;;;;;;;12.61;100.00;97078.72;4160580;28;20695;-80
2023/10/25 02:07:46;;;;;;;12.40;9.13;;;;;;;12.59;100.00;97072.81;4159593;28;20629;-80
2023/10/25 02:09:48;;;;;;;10.27;8.70;;;;;;;12.58;100.00;97088.66;4191361;28;21024;-80
2023/10/25 02:11:53;;;;;;;11.47;10.07;;;;;;;12.55;100.00;97086.31;4157844;28;20666;-80
2023/10/25 02:13:57;;;;;;;13.73;9.27;;;;;;;12.53;100.00;97083.84;4206300;28;21259;-80
2023/10/25 02:16:11;;;;;;;10.63;9.17;;;;;;;12.48;100.00;97077.38;4184162;28;20751;-81
2023/10/25 02:18:15;;;;;;;12.40;8.83;;;;;;;12.47;100.00;97081.78;4182183;28;20975;-81
2023/10/25 02:20:18;;;;;;;9.40;8.40;;;;;;;12.45;100.00;97072.47;4176945;28;20628;-80
2023/10/25 02:22:22;;;;;;;14.90;8.60;;;;;;;12.41;100.00;97071.91;4178356;28;20625;-80
2023/10/25 02:24:25;;;;;;;18.17;7.17;;;;;;;12.39;100.00;97081.69;4176318;28;20672;-80
2023/10/25 02:26:29;;;;;;;15.93;7.70;;;;;;;12.34;100.00;97078.66;4191733;28;20635;-80
2023/10/25 02:28:34;;;;;;;20.03;8.00;;;;;;;12.29;100.00;97069.59;4172012;28;20642;-80
2023/10/25 02:30:37;;;;;;;14.13;7.70;;;;;;;12.26;100.00;97073.28;4162893;28;20725;-80
2023/10/25 02:32:40;;;;;;;11.03;7.80;;;;;;;12.22;100.00;97078.94;4176143;28;20632;-80
2023/10/25 02:34:44;;;;;;;14.07;8.23;;;;;;;12.19;100.00;97081.84;4175856;28;20640;-80
2023/10/25 02:36:47;;;;;;;11.83;7.97;;;;;;;12.18;100.00;97074.97;4175857;28;20620;-80
2023/10/25 02:38:50;;;;;;;11.80;7.80;;;;;;;12.17;100.00;97078.53;4163632;28;20626;-80
2023/10/25 02:40:52;;;;;;;16.60;8.77;;;;;;;12.13;100.00;97071.94;4176849;28;20639;-80
2023/10/25 02:42:56;;;;;;;11.70;8.07;;;;;;;12.11;100.00;97060.78;4192763;28;21160;-80
2023/10/25 02:44:59;;;;;;;12.03;8.97;;;;;;;12.12;100.00;97061.63;4176407;28;20648;-80
2023/10/25 02:47:03;;;;;;;12.43;9.77;;;;;;;12.14;100.00;97052.69;4173761;28;20624;-80
2023/10/25 02:49:06;;;;;;;17.43;9.67;;;;;;;12.18;100.00;97054.06;4176680;28;20715;-81
2023/10/25 02:51:09;;;;;;;33.63;9.00;;;;;;;12.15;100.00;97048.25;4162278;28;20664;-80
2023/10/25 02:53:12;;;;;;;15.90;7.90;;;;;;;12.05;100.00;97040.44;4178034;28;20761;-80
2023/10/25 02:55:16;;;;;;;9.50;7.10;;;;;;;12.00;100.00;97039.22;4195328;28;20689;-80
2023/10/25 02:57:20;;;;;;;9.50;7.97;;;;;;;11.99;100.00;97042.81;4188700;28;21103;-80
2023/10/25 02:59:24;;;;;;;9.60;7.17;;;;;;;12.01;100.00;97040.88;4188043;28;20718;-80
2023/10/25 03:01:28;;;;;;;36.80;7.53;;;;;;;11.98;100.00;97041.97;4169383;28;20661;-80
2023/10/25 03:03:33;;;;;;;16.60;7.67;;;;;;;11.96;100.00;97043.06;4177518;28;20652;-81
2023/10/25 03:05:36;;;;;;;10.03;6.97;;;;;;;11.94;100.00;97048.44;4173850;28;20661;-81
2023/10/25 03:07:40;;;;;;;16.87;7.10;;;;;;;11.90;100.00;97038.41;4174297;28;20653;-80
2023/10/25 03:09:43;;;;;;;15.10;7.40;;;;;;;11.84;100.00;97034.53;4209703;28;20641;-80
2023/10/25 03:11:47;;;;;;;13.73;7.97;;;;;;;11.83;100.00;97034.69;4206659;28;20624;-81
2023/10/25 03:13:50;;;;;;;7.73;6.50;;;;;;;11.82;100.00;97027.81;4162043;28;20633;-80
2023/10/25 03:15:52;;;;;;;7.23;6.53;;;;;;;11.83;100.00;97032.91;4166984;28;20644;-80
2023/10/25 03:17:57;;;;;;;8.10;7.30;;;;;;;11.84;100.00;97033.72;4202018;28;21353;-80
2023/10/25 03:20:02;;;;;;;7.03;6.33;;;;;;;11.78;100.00;97029.06;4164991;28;20651;-80
2023/10/25 03:22:06;;;;;;;7.00;6.30;;;;;;;11.76;100.00;97021.34;4178939;28;20648;-80
2023/10/25 03:24:09;;;;;;;10.10;6.40;;;;;;;11.77;100.00;97020.41;4163085;28;21196;-80
2023/10/25 03:26:13;;;;;;;6.40;5.73;;;;;;;11.75;100.00;97012.84;4172246;28;20706;-81
2023/10/25 03:28:16;;;;;;;6.60;5.90;;;;;;;11.76;100.00;97010.91;4170527;28;20699;-81
2023/10/25 03:30:19;;;;;;;35.80;6.40;;;;;;;11.76;100.00;97003.06;4194192;28;21326;-81
2023/10/25 03:32:23;;;;;;;7.60;5.33;;;;;;;11.74;100.00;97005.97;4177327;28;21232;-80
2023/10/25 03:34:26;;;;;;;5.37;4.87;;;;;;;11.72;100.00;97005.28;4204556;28;21286;-80
2023/10/25 03:36:29;;;;;;;5.50;4.87;;;;;;;11.73;100.00;97004.31;4159290;28;21233;-80
2023/10/25 03:38:33;;;;;;;7.30;5.20;;;;;;;11.75;100.00;97005.00;4192222;28;21037;-81
2023/10/25 03:40:37;;;;;;;6.23;5.30;;;;;;;11.80;100.00;97009.69;4189864;28;20657;-81
2023/10/25 03:42:40;;;;;;;5.60;4.80;;;;;;;11.84;100.00;97003.19;4188177;28;20987;-81
2023/10/25 03:44:43;;;;;;;5.80;4.90;;;;;;;11.85;100.00;97001.44;4155491;28;20708;-81
2023/10/25 03:46:47;;;;;;;5.10;4.57;;;;;;;11.86;100.00;97001.28;4183592;28;20632;-81
2023/10/25 03:48:50;;;;;;;7.50;5.77;;;;;;;11.84;100.00;96997.97;4178852;28;20671;-81
2023/10/25 03:50:54;;;;;;;12.57;7.37;;;;;;;11.79;100.00;97002.78;4166973;28;20660;-81
2023/10/25 03:52:57;;;;;;;13.53;8.60;;;;;;;11.75;100.00;97002.41;4163665;28;20624;-81
2023/10/25 03:55:00;;;;;;;14.10;7.23;;;;;;;11.69;100.00;97000.34;4162991;28;20644;-81
2023/10/25 03:57:03;;;;;;;9.43;6.67;;;;;;;11.64;100.00;96995.53;4192378;28;20631;-80
2023/10/25 03:59:07;;;;;;;9.40;6.37;;;;;;;11.62;100.00;96992.25;4174282;28;20715;-80
2023/10/25 04:01:10;;;;;;;8.30;6.50;;;;;;;11.60;100.00;96982.88;4169149;28;20639;-81
2023/10/25 04:03:13;;;;;;;10.77;6.30;;;;;;;11.61;100.00;96984.53;4174137;28;20646;-80
2023/10/25 04:05:17;;;;;;;7.17;5.80;;;;;;;11.60;100.00;96985.50;4193435;28;20655;-80
2023/10/25 04:07:21;;;;;;;7.00;5.50;;;;;;;11.59;100.00;96986.44;4187164;28;20631;-80
2023/10/25 04:09:25;;;;;;;6.93;5.70;;;;;;;11.56;100.00;96971.06;4175258;28;20621;-80
2023/10/25 04:11:28;;;;;;;6.60;5.30;;;;;;;11.54;100.00;96975.59;4172763;28;20686;-82
2023/10/25 04:13:32;;;;;;;5.77;5.23;;;;;;;11.54;100.00;96972.97;4155689;28;20735;-83
2023/10/25 04:15:35;;;;;;;9.43;5.13;;;;;;;11.51;100.00;96970.66;4195978;28;20669;-83
2023/10/25 04:17:38;;;;;;;6.00;4.93;;;;;;;11.50;100.00;96969.00;4169086;28;20656;-83
2023/10/25 04:19:42;;;;;;;5.17;4.67;;;;;;;11.45;100.00;96964.16;4188007;28;21208;-83
2023/10/25 04:21:45;;;;;;;5.60;5.00;;;;;;;11.44;100.00;96967.75;4190759;28;20635;-83
2023/10/25 04:23:50;;;;;;;6.97;5.90;;;;;;;11.41;100.00;96967.16;4190064;28;20651;-83
2023/10/25 04:25:53;;;;;;;7.40;5.17;;;;;;;11.41;100.00;96961.94;4203422;28;20736;-83
2023/10/25 04:27:56;;;;;;;7.17;5.47;;;;;;;11.40;100.00;96965.53;4163194;28;21305;-83
2023/10/25 04:29:59;;;;;;;8.30;5.60;;;;;;;11.37;100.00;96966.63;4181059;28;21174;-82
2023/10/25 04:32:05;;;;;;;7.53;5.30;;;;;;;11.35;100.00;96967.72;4191053;28;20618;-82
2023/10/25 04:34:08;;;;;;;7.37;5.53;;;;;;;11.35;100.00;96967.72;4164459;28;20629;-83
2023/10/25 04:36:12;;;;;;;7.10;5.30;;;;;;;11.33;100.00;96962.63;4168308;28;20648;-83
2023/10/25 04:38:14;;;;;;;7.00;5.30;;;;;;;11.31;100.00;96963.75;4187488;28;20612;-83
2023/10/25 04:40:19;;;;;;;5.70;4.80;;;;;;;11.27;100.00;96964.97;4178519;28;20630;-82
2023/10/25 04:42:22;;;;;;;5.50;4.90;;;;;;;11.21;100.00;96962.91;4176253;28;21228;-83
2023/10/25 04:44:25;;;;;;;5.30;4.80;;;;;;;11.19;99.70;96954.41;4193860;28;20635;-83
2023/10/25 04:46:28;;;;;;;5.30;4.70;;;;;;;11.18;99.78;96955.34;4157211;28;20651;-83
2023/10/25 04:48:31;;;;;;;5.87;4.93;;;;;;;11.17;100.00;96945.03;4195917;28;20619;-82
2023/10/25 04:50:37;;;;;;;7.33;6.63;;;;;;;11.14;100.00;96935.72;4178728;28;21502;-81
2023/10/25 04:52:40;;;;;;;6.90;5.53;;;;;;;11.11;100.00;96924.72;4187855;28;20632;-82
2023/10/25 04:54:43;;;;;;;13.93;5.80;;;;;;;11.04;100.00;96927.06;4174600;28;20724;-82
2023/10/25 04:56:51;;;;;;;33.73;22.43;;;;;;;10.96;99.27;96918.25;4191296;28;21200;-86
2023/10/25 04:58:54;;;;;;;49.00;33.03;;;;;;;10.88;97.99;96908.53;4175234;28;20645;-84
2023/10/25 05:00:57;;;;;;;26.03;21.10;;;;;;;10.82;98.75;96914.28;4175456;28;20686;-82
2023/10/25 05:03:01;;;;;;;12.40;10.40;;;;;;;10.80;97.70;96911.94;4174051;28;20762;-82
2023/10/25 05:05:06;;;;;;;6.03;5.43;;;;;;;10.82;99.69;96909.06;4160477;28;20629;-82
2023/10/25 05:07:10;;;;;;;5.20;4.70;;;;;;;10.89;98.92;96912.75;4158054;28;20641;-81
2023/10/25 05:09:13;;;;;;;4.60;4.13;;;;;;;10.95;100.00;96906.19;4178415;28;20640;-81
2023/10/25 05:11:17;;;;;;;47.20;34.07;;;;;;;11.04;100.00;96907.97;4172381;28;20652;-81
2023/10/25 05:13:22;;;;;;;8.47;7.60;;;;;;;11.06;100.00;96909.47;4187259;28;20642;-81
2023/10/25 05:15:28;;;;;;;5.00;3.90;;;;;;;11.05;100.00;96907.00;4185572;28;21012;-81
2023/10/25 05:17:32;;;;;;;6.03;5.17;;;;;;;11.08;99.77;96910.19;4176943;28;20659;-82
2023/10/25 05:19:37;;;;;;;4.63;4.10;;;;;;;11.04;100.00;96900.97;4175196;28;20636;-82
2023/10/25 05:21:43;;;;;;;5.20;4.70;;;;;;;11.01;99.71;96905.63;4200559;28;20638;-82
2023/10/25 05:23:47;;;;;;;7.50;5.00;;;;;;;10.93;100.00;96905.47;4189285;28;20647;-82
2023/10/25 05:25:51;;;;;;;5.17;4.60;;;;;;;10.90;99.78;96898.75;4183278;28;20659;-81
2023/10/25 05:27:54;;;;;;;5.30;4.27;;;;;;;10.86;98.88;96899.97;4186550;28;20627;-81
2023/10/25 05:30:03;;;;;;;6.87;4.70;;;;;;;10.84;98.57;96901.91;4187308;28;20631;-81
2023/10/25 05:32:11;;;;;;;4.57;4.00;;;;;;;10.80;100.00;96903.13;4187182;28;20714;-81
2023/10/25 05:34:14;;;;;;;5.83;4.27;;;;;;;10.78;99.93;96908.63;4180288;28;21289;-81
2023/10/25 05:36:18;;;;;;;4.30;3.90;;;;;;;10.74;98.34;96904.66;4172559;28;21035;-81
2023/10/25 05:38:22;;;;;;;4.53;4.10;;;;;;;10.72;98.21;96899.56;4202656;28;21192;-81
2023/10/25 05:40:27;;;;;;;3.50;3.20;;;;;;;10.68;98.73;96897.38;4203234;28;21381;-81
2023/10/25 05:42:31;;;;;;;4.93;4.37;;;;;;;10.65;98.52;96895.03;4202195;28;21060;-82
2023/10/25 05:44:35;;;;;;;8.80;6.10;;;;;;;10.63;98.79;96882.13;4188443;28;20636;-81
2023/10/25 05:46:40;;;;;;;5.77;4.40;;;;;;;10.60;98.68;96879.78;4206555;28;20698;-81
2023/10/25 05:48:46;;;;;;;4.27;3.80;;;;;;;10.57;99.26;96887.03;4169216;28;20675;-81
2023/10/25 05:50:51;;;;;;;6.57;3.93;;;;;;;10.48;97.07;96880.03;4169991;28;20660;-81
2023/10/25 05:52:55;;;;;;;11.93;3.63;;;;;;;10.41;97.78;96881.53;4187150;28;20696;-81
2023/10/25 05:54:59;;;;;;;4.27;3.70;;;;;;;10.33;97.28;96876.97;4171210;28;20625;-81
2023/10/25 05:57:03;;;;;;;16.43;4.40;;;;;;;10.30;97.93;96876.41;4166919;28;20613;-81
2023/10/25 05:59:07;;;;;;;7.60;3.90;;;;;;;10.31;97.60;96885.06;4171353;28;20630;-81
2023/10/25 06:01:12;;;;;;;3.70;3.30;;;;;;;10.31;97.57;96888.47;4169844;28;20624;-81
2023/10/25 06:03:20;;;;;;;4.30;3.90;;;;;;;10.32;98.57;96885.72;4185256;28;21253;-81
2023/10/25 06:05:27;;;;;;;9.00;4.23;;;;;;;10.33;99.52;96881.38;4173771;28;21041;-81
2023/10/25 06:07:31;;;;;;;9.40;4.43;;;;;;;10.33;100.00;96876.97;4169262;28;20667;-81
2023/10/25 06:09:33;;;;;;;7.30;4.40;;;;;;;10.32;99.90;96870.09;4187189;28;20632;-82
2023/10/25 06:11:38;;;;;;;6.80;4.10;;;;;;;10.31;100.00;96862.41;4171726;28;20676;-82
2023/10/25 06:13:41;;;;;;;6.20;3.57;;;;;;;10.31;99.94;96870.22;4169305;28;20724;-82
2023/10/25 06:15:45;;;;;;;7.30;4.00;;;;;;;10.31;100.00;96866.81;4168468;28;20732;-81
2023/10/25 06:17:48;;;;;;;6.23;4.10;;;;;;;10.32;100.00;96870.09;4183524;28;20726;-82
2023/10/25 06:19:53;;;;;;;16.93;5.90;;;;;;;10.37;100.00;96869.69;4172623;28;20723;-82
2023/10/25 06:21:56;;;;;;;13.67;8.60;;;;;;;10.43;100.00;96872.63;4158225;28;20716;-82
2023/10/25 06:24:00;;;;;;;12.38;7.63;;;;;;;10.56;100.00;96874.97;4179992;28;20632;-82
2023/10/25 06:26:03;;;;;;;8.33;6.20;;;;;;;10.63;100.00;96876.91;4181961;28;20266;-82
2023/10/25 06:28:07;;;;;;;8.83;6.43;;;;;;;10.72;100.00;96877.88;4179027;28;20651;-81
2023/10/25 06:30:11;;;;;;;16.90;12.77;;;;;;;10.82;100.00;96874.31;4164878;28;20664;-81
2023/10/25 06:32:14;;;;;;;8.30;6.77;;;;;;;10.85;100.00;96884.47;4163144;28;21114;-82
2023/10/25 06:34:18;;;;;;;7.63;5.73;;;;;;;10.83;100.00;96882.00;4196418;28;20689;-81
2023/10/25 06:36:23;;;;;;;11.30;8.20;;;;;;;10.81;100.00;96875.28;4160063;28;20625;-82
2023/10/25 06:38:26;;;;;;;8.87;7.50;;;;;;;10.80;100.00;96874.44;4163019;28;20622;-82
2023/10/25 06:40:30;;;;;;;8.57;7.03;;;;;;;10.81;100.00;96876.09;4179173;28;20720;-82
2023/10/25 06:42:34;;;;;;;9.57;7.10;;;;;;;10.83;100.00;96882.00;4193009;28;20670;-82
2023/10/25 06:44:38;;;;;;;5.70;4.93;;;;;;;10.86;100.00;96883.53;4179368;28;20663;-82
2023/10/25 06:46:44;;;;;;;7.50;6.07;;;;;;;10.83;100.00;96881.19;4196869;28;20653;-82
2023/10/25 06:48:50;;;;;;;8.63;5.17;;;;;;;10.78;99.29;96877.31;4205757;28;20630;-83
2023/10/25 06:50:55;;;;;;;13.37;10.87;;;;;;;10.78;99.09;96870.34;4193840;28;20627;-83
2023/10/25 06:53:00;;;;;;;24.50;7.27;;;;;;;10.94;99.36;96868.81;4189988;28;21600;-82
2023/10/25 06:55:04;;;;;;;10.40;5.40;;;;;;;11.17;100.00;96861.53;4178497;28;20715;-84
2023/10/25 06:57:08;;;;;;;8.20;6.13;;;;;;;11.39;100.00;96859.47;4172763;28;21190;-84
2023/10/25 06:59:12;;;;;;;7.40;6.00;;;;;;;11.42;100.00;96844.34;4184863;28;20629;-83
2023/10/25 07:01:18;;;;;;;6.37;5.20;;;;;;;11.35;100.00;96843.25;4190782;28;20633;-84
2023/10/25 07:03:25;;;;;;;8.60;6.43;;;;;;;11.34;100.00;96835.56;4175208;28;20620;-84
2023/10/25 07:05:29;;;;;;;8.00;6.77;;;;;;;11.35;100.00;96842.41;4174078;28;20629;-82
2023/10/25 07:07:33;;;;;;;4.77;3.83;;;;;;;11.39;100.00;96849.03;4190885;28;20699;-83
2023/10/25 07:09:38;;;;;;;6.77;6.07;;;;;;;11.62;100.00;96850.38;4164759;28;21040;-84
2023/10/25 07:11:41;;;;;;;7.10;5.80;;;;;;;11.97;100.00;96848.75;4183559;28;20635;-84
2023/10/25 07:13:45;;;;;;;11.00;6.63;;;;;;;12.27;100.00;96851.94;4181032;28;20727;-84
2023/10/25 07:15:49;;;;;;;7.77;5.43;;;;;;;12.46;100.00;96847.41;4179241;28;20686;-84
2023/10/25 07:17:52;;;;;;;7.77;6.00;;;;;;;12.61;100.00;96843.31;4194342;28;21231;-84
2023/10/25 07:19:55;;;;;;;9.40;7.40;;;;;;;12.72;99.87;96836.09;4178997;28;20735;-84
2023/10/25 07:21:58;;;;;;;8.20;6.63;;;;;;;12.92;100.00;96831.56;4174845;28;20679;-84
2023/10/25 07:24:01;;;;;;;6.07;5.47;;;;;;;13.06;98.85;96818.75;4162220;28;20631;-84
2023/10/25 07:26:06;;;;;;;5.87;5.27;;;;;;;13.18;99.08;96828.03;4180502;28;20631;-84
2023/10/25 07:28:10;;;;;;;9.53;7.10;;;;;;;13.40;100.00;96822.31;4192189;28;20709;-84
2023/10/25 07:30:13;;;;;;;7.77;6.00;;;;;;;13.63;100.00;96823.44;4178720;28;20663;-84
2023/10/25 07:32:16;;;;;;;8.40;6.60;;;;;;;13.84;99.85;96828.16;4176813;28;20674;-84
2023/10/25 07:34:20;;;;;;;6.70;5.67;;;;;;;14.02;99.48;96821.03;4162899;28;20617;-85
2023/10/25 07:36:24;;;;;;;5.90;4.60;;;;;;;14.25;98.01;96825.63;4177717;28;20712;-85
2023/10/25 07:38:28;;;;;;;5.67;5.07;;;;;;;14.49;99.11;96828.31;4175058;28;20621;-85
2023/10/25 07:40:31;;;;;;;3.93;3.53;;;;;;;14.66;95.33;96828.22;4187147;28;21255;-85
2023/10/25 07:42:36;;;;;;;3.40;3.00;;;;;;;14.73;95.11;96823.97;4188787;28;20624;-84
2023/10/25 07:44:39;;;;;;;3.03;2.70;;;;;;;14.84;94.66;96831.53;4191737;28;20643;-82
2023/10/25 07:46:43;;;;;;;4.50;3.67;;;;;;;14.98;93.86;96815.13;4193414;28;20636;-82
2023/10/25 07:48:47;;;;;;;4.87;3.10;;;;;;;15.07;93.29;96817.59;4175066;28;20657;-82
2023/10/25 07:50:51;;;;;;;3.77;3.10;;;;;;;15.15;92.69;96804.50;4183048;28;21020;-82
2023/10/25 07:52:54;;;;;;;3.60;2.70;;;;;;;15.32;91.29;96802.69;4170547;28;21036;-82
2023/10/25 07:54:57;;;;;;;4.33;2.60;;;;;;;15.53;91.09;96803.84;4171929;28;21164;-82
2023/10/25 07:57:00;;;;;;;2.67;2.30;;;;;;;15.68;89.35;96800.34;4172734;28;20639;-82
2023/10/25 07:59:07;;;;;;;3.63;2.40;;;;;;;15.86;89.92;96803.59;4205950;28;20637;-82
2023/10/25 08:01:11;;;;;;;3.10;2.70;;;;;;;15.98;88.23;96802.22;4181365;28;20617;-83
2023/10/25 08:03:16;;;;;;;2.93;2.27;;;;;;;16.12;89.69;96801.56;4190114;28;20699;-82
2023/10/25 08:05:21;;;;;;;2.37;2.17;;;;;;;16.23;89.15;96798.56;4190858;28;20656;-82
2023/10/25 08:07:26;;;;;;;2.57;2.13;;;;;;;16.23;86.08;96802.00;4184526;28;20649;-82
2023/10/25 08:09:30;;;;;;;2.17;1.97;;;;;;;16.09;86.10;96796.63;4170792;28;20644;-82
2023/10/25 08:11:35;;;;;;;3.60;2.37;;;;;;;15.93;87.44;96788.78;4192072;28;21019;-82
2023/10/25 08:13:38;;;;;;;3.47;2.77;;;;;;;15.71;88.45;96789.50;4192828;28;20644;-82
2023/10/25 08:15:43;;;;;;;3.00;2.20;;;;;;;15.51;86.58;96786.59;4191926;28;20737;-82
2023/10/25 08:17:47;;;;;;;3.30;2.90;;;;;;;15.31;87.77;96780.84;4210042;28;20618;-82
2023/10/25 08:19:50;;;;;;;3.47;2.80;;;;;;;15.19;90.17;96781.38;4203185;28;20997;-82
2023/10/25 08:21:53;;;;;;;3.20;2.50;;;;;;;15.07;90.06;96776.59;4185859;28;21012;-82
2023/10/25 08:23:57;;;;;;;3.13;2.53;;;;;;;15.26;89.87;96774.44;4180251;28;20731;-82
2023/10/25 08:26:01;;;;;;;2.73;2.53;;;;;;;15.53;88.46;96779.34;4173074;28;21180;-82
2023/10/25 08:28:04;;;;;;;6.60;3.17;;;;;;;15.78;89.11;96781.75;4176943;28;20666;-82
2023/10/25 08:30:08;;;;;;;2.80;2.30;;;;;;;15.98;87.84;96783.81;4204464;28;20617;-82
2023/10/25 08:32:12;;;;;;;3.60;3.10;;;;;;;16.15;88.65;96777.53;4186748;28;20679;-82
2023/10/25 08:34:15;;;;;;;4.67;2.90;;;;;;;16.21;84.34;96779.47;4174629;28;20626;-82
2023/10/25 08:36:19;;;;;;;3.53;3.23;;;;;;;16.29;85.27;96780.28;4156737;28;20665;-82
2023/10/25 08:38:22;;;;;;;4.77;3.47;;;;;;;16.34;86.92;96787.66;4191682;28;20622;-82
2023/10/25 08:40:25;;;;;;;4.10;3.30;;;;;;;16.41;88.52;96781.53;4170641;28;20672;-81
2023/10/25 08:42:28;;;;;;;3.40;3.00;;;;;;;16.51;88.56;96782.97;4161646;28;20633;-82
2023/10/25 08:44:38;;;;;;;3.80;3.20;;;;;;;16.54;88.74;96784.44;4204437;28;20693;-82
2023/10/25 08:46:43;;;;;;;3.53;3.20;;;;;;;16.31;89.89;96785.38;4151421;28;20625;-82
2023/10/25 08:48:50;;;;;;;3.67;3.27;;;;;;;16.08;87.04;96769.47;4169976;28;21051;-82
2023/10/25 08:50:52;;;;;;;4.37;2.90;;;;;;;15.91;88.07;96764.47;4186000;28;20662;-82
2023/10/25 08:52:56;;;;;;;3.77;3.10;;;;;;;15.80;87.48;96754.31;4177232;28;21068;-82
2023/10/25 08:55:01;;;;;;;3.80;3.33;;;;;;;15.70;88.51;96743.16;4191954;28;20636;-82
2023/10/25 08:57:05;;;;;;;3.50;3.00;;;;;;;15.58;87.50;96743.69;4175122;28;21192;-82
2023/10/25 08:59:07;;;;;;;3.73;3.10;;;;;;;15.49;86.95;96738.63;4194284;28;20733;-82
2023/10/25 09:01:13;;;;;;;3.47;3.03;;;;;;;15.39;88.69;96730.91;4186614;28;20675;-82
2023/10/25 09:03:39;;;;;;;3.80;2.90;;;;;;;15.38;90.28;96731.09;4177985;28;20662;-82
2023/10/25 09:05:44;;;;;;;3.50;3.10;;;;;;;15.39;90.19;96725.66;4168039;28;21197;-82
2023/10/25 09:07:51;;;;;;;3.47;3.17;;;;;;;15.41;88.61;96725.50;4162395;28;20642;-83
2023/10/25 09:09:54;;;;;;;3.63;2.83;;;;;;;15.36;88.96;96722.56;4188755;28;20736;-83
2023/10/25 09:11:58;;;;;;;3.70;2.93;;;;;;;15.27;89.62;96713.84;4161549;28;20675;-83
2023/10/25 09:14:00;;;;;;;4.00;2.87;;;;;;;15.22;90.26;96710.91;4177893;28;20632;-82
2023/10/25 09:16:06;;;;;;;3.53;2.80;;;;;;;15.17;90.32;96699.28;4175619;28;20667;-82
2023/10/25 09:18:09;;;;;;;5.27;2.70;;;;;;;15.15;90.84;96701.22;4173956;28;21082;-82
2023/10/25 09:20:13;;;;;;;3.47;2.63;;;;;;;15.13;90.59;96695.31;4185761;28;20642;-81
2023/10/25 09:22:25;;;;;;;3.67;2.90;;;;;;;15.14;90.46;96689.09;4190785;28;20672;-81
2023/10/25 09:24:28;;;;;;;3.80;3.10;;;;;;;15.17;92.07;96686.16;4189871;28;20671;-81
2023/10/25 09:26:36;;;;;;;4.10;3.03;;;;;;;15.13;91.34;96685.63;4174287;28;21054;-82
2023/10/25 09:28:39;;;;;;;4.20;3.70;;;;;;;15.11;90.27;96682.34;4173802;28;21147;-82
2023/10/25 09:30:44;;;;;;;3.17;2.70;;;;;;;15.02;91.41;96674.66;4172895;28;21052;-82
2023/10/25 09:32:47;;;;;;;3.70;3.10;;;;;;;15.01;90.23;96675.63;4174446;28;20658;-82
2023/10/25 09:34:51;;;;;;;3.57;2.83;;;;;;;15.01;92.30;96674.81;4186532;28;22524;-81
2023/10/25 09:36:54;;;;;;;3.80;3.40;;;;;;;15.00;92.37;96671.34;4193551;28;20628;-81